Arcata Airport
KACV : now visible

Airfield :











YOU CAN JOIN US ON...

 
LOGIN :

Register | Disclaimer

   EN    FR    IT 

 









Legend :    VFR   Marginal VFR   IFR   Intensive IFR   Very Intensive IFR
Visi :
Ceiling :
>= 8 km
>= 3000ft
5 to 8 km
1000 to 3000 ft
1500m to 5 km
500 to 1000 ft
800 to 1500m
200 to 500 ft
< 800m
< 200 ft
Symbols :   Thunderstorms  Fog  Heavy snow  Heavy precipitations  Wind > 20 kt






- Airport Elevation : 221 ft
- IATA code : ACV


KACV - Arcata

CURRENT METAR :
  • 250353Z AUTO 13004KT 10SM OVC006 13/11 A3004 RMK AO2 SLP177 T01280111

EXPIRED METARs :
  • 250329Z AUTO 17005KT 10SM OVC005 13/12 A3004 RMK AO2 T01280117
  • 250315Z AUTO 21004KT 10SM OVC004 13/12 A3004 RMK AO2 T01280117
  • 250253Z AUTO 26004KT 10SM OVC005 13/12 A3004 RMK AO2 SLP178 T01280117 53003
  • 250242Z AUTO 23005KT 10SM OVC005 13/12 A3004 RMK AO2 T01280117
  • 250153Z AUTO VRB03KT 10SM OVC003 13/12 A3003 RMK AO2 SLP173 T01280117

TAF KACV
Valid from the 25 at 00:00 until the 26 at 00:00 UTC


250026Z 2500/2524 28005KT P6SM BKN005
FM250200 VRB03KT 5SM BR OVC005
FM250900 VRB03KT 2SM BR OVC003
FM251800 28005KT P6SM BKN005
FM252100 31007KT P6SM BKN005
KZSE FIR / North America



MET'MAP, your aeronautical weather chart ! - Copyright ORBIFLY December 2007 - Disclaimer

ORBIFLY MET'MAP TEAM :

Programming & Development : Alexandra Zaïnal
Concept & original design : Baudouin d'Aumeries
Assistance for programming : Marc-Olivier Méhu
Technical & hardware support : Manuel Goepfert

Contact : metmap@orbifly.com




SOURCES & CREDITS :

   NOAA       Earth
Advisory